createdAt,value
2023-02-13T00:00:29.805Z,5.90
2023-02-13T00:04:57.772Z,5.50
2023-02-13T00:09:11.304Z,4.90
2023-02-13T00:13:19.498Z,5.40
2023-02-13T00:17:27.359Z,4.50
2023-02-13T00:21:34.940Z,5.20
2023-02-13T00:25:43.355Z,5.10
2023-02-13T00:29:50.984Z,5.50
2023-02-13T00:33:58.949Z,4.70
2023-02-13T00:38:06.870Z,4.20
2023-02-13T00:42:14.502Z,4.20
2023-02-13T00:46:22.635Z,3.90
2023-02-13T00:50:30.459Z,5.00
2023-02-13T00:54:38.253Z,4.50
2023-02-13T00:58:45.659Z,4.00
2023-02-13T01:02:53.794Z,4.20
2023-02-13T01:07:01.706Z,4.20
2023-02-13T01:11:09.861Z,4.10
2023-02-13T01:15:18.501Z,3.70
2023-02-13T01:19:26.662Z,3.50
2023-02-13T01:23:36.525Z,3.50
2023-02-13T01:27:44.476Z,3.60
2023-02-13T01:31:52.425Z,3.70
2023-02-13T01:36:00.657Z,3.70
2023-02-13T01:40:10.761Z,4.80
2023-02-13T01:44:52.040Z,4.40
2023-02-13T01:49:02.508Z,3.70
2023-02-13T01:53:13.366Z,3.50
2023-02-13T01:57:23.388Z,4.20
2023-02-13T02:01:31.809Z,4.00
2023-02-13T02:05:39.829Z,4.50
2023-02-13T02:09:48.388Z,4.30
2023-02-13T02:13:56.409Z,3.90
2023-02-13T02:18:04.459Z,4.10
2023-02-13T02:22:57.854Z,4.00
2023-02-13T02:27:44.641Z,4.10
2023-02-13T02:32:10.877Z,4.10
2023-02-13T02:36:28.176Z,4.30
2023-02-13T02:40:49.617Z,4.00
2023-02-13T02:45:02.331Z,5.00
2023-02-13T02:49:32.375Z,4.20
2023-02-13T02:53:43.403Z,5.20
2023-02-13T02:58:11.134Z,3.90
2023-02-13T03:02:36.906Z,5.30
2023-02-13T03:06:48.942Z,4.60
2023-02-13T03:11:16.477Z,4.80
2023-02-13T03:15:25.737Z,4.30
2023-02-13T03:20:06.081Z,4.60
2023-02-13T03:24:23.938Z,4.30
2023-02-13T03:28:53.730Z,4.70
2023-02-13T03:33:12.309Z,4.60
2023-02-13T03:37:41.279Z,5.10
2023-02-13T03:41:54.458Z,6.10
2023-02-13T03:46:03.047Z,6.00
2023-02-13T03:50:13.039Z,7.90
2023-02-13T03:54:38.555Z,4.90
2023-02-13T03:59:08.129Z,7.60
2023-02-13T04:03:18.998Z,6.10
2023-02-13T04:07:30.901Z,5.40
2023-02-13T04:11:40.727Z,5.20
2023-02-13T04:15:51.841Z,5.10
2023-02-13T04:20:01.052Z,7.40
2023-02-13T04:24:10.053Z,6.80
2023-02-13T04:28:17.947Z,9.80
2023-02-13T04:32:26.105Z,6.00
2023-02-13T04:36:34.473Z,6.00
2023-02-13T04:40:42.137Z,7.00
2023-02-13T04:44:50.200Z,5.40
2023-02-13T04:48:57.600Z,5.60
2023-02-13T04:53:05.357Z,5.20
2023-02-13T04:57:13.335Z,7.00
2023-02-13T05:01:20.915Z,6.70
2023-02-13T05:05:28.892Z,7.60
2023-02-13T05:09:36.629Z,6.30
2023-02-13T05:13:45.545Z,5.50
2023-02-13T05:17:53.561Z,5.80
2023-02-13T05:22:18.620Z,6.30
2023-02-13T05:26:26.958Z,5.80
2023-02-13T05:30:35.097Z,6.00
2023-02-13T05:34:42.732Z,6.20
2023-02-13T05:38:50.672Z,5.30
2023-02-13T05:42:58.963Z,4.90
2023-02-13T05:47:06.973Z,5.10
2023-02-13T05:51:14.529Z,5.70
2023-02-13T05:55:22.360Z,5.90
2023-02-13T05:59:30.148Z,5.50
2023-02-13T06:03:38.300Z,6.90
2023-02-13T06:07:45.727Z,5.90
2023-02-13T06:11:53.787Z,5.70
2023-02-13T06:16:02.431Z,4.90
2023-02-13T06:20:12.725Z,5.20
2023-02-13T06:24:23.358Z,4.90
2023-02-13T06:28:30.802Z,8.70
2023-02-13T06:32:39.338Z,5.90
2023-02-13T06:36:47.060Z,5.50
2023-02-13T06:40:55.068Z,5.30
2023-02-13T06:45:02.948Z,6.00
2023-02-13T06:49:12.465Z,6.60
2023-02-13T06:53:25.042Z,7.00
2023-02-13T06:57:34.077Z,6.40
2023-02-13T07:01:42.650Z,5.70
2023-02-13T07:05:52.242Z,6.10
2023-02-13T07:10:00.188Z,5.50
2023-02-13T07:14:11.494Z,7.90
2023-02-13T07:18:19.652Z,9.10
2023-02-13T07:22:27.434Z,7.80
2023-02-13T07:26:35.313Z,8.60
2023-02-13T07:30:43.870Z,7.60
2023-02-13T07:35:01.323Z,8.40
2023-02-13T07:39:10.784Z,7.20
2023-02-13T07:43:18.792Z,6.80
2023-02-13T07:47:26.285Z,5.90
2023-02-13T07:51:34.295Z,5.90
2023-02-13T07:55:43.044Z,6.10
2023-02-13T07:59:50.949Z,6.40
2023-02-13T08:03:59.225Z,7.30
2023-02-13T08:08:07.735Z,7.50
2023-02-13T08:12:15.610Z,8.10
2023-02-13T08:16:23.505Z,8.80
2023-02-13T08:20:31.674Z,9.00
2023-02-13T08:24:39.664Z,9.70
2023-02-13T08:28:47.472Z,10.50
2023-02-13T08:32:56.338Z,9.40
2023-02-13T08:37:07.188Z,10.20
2023-02-13T08:45:23.916Z,10.00
2023-02-13T08:49:32.003Z,10.10
2023-02-13T08:53:40.389Z,10.20
2023-02-13T08:57:48.466Z,10.80
2023-02-13T09:01:56.795Z,12.10
2023-02-13T09:06:05.232Z,10.30
2023-02-13T09:10:14.050Z,9.60
2023-02-13T09:14:24.238Z,10.40
2023-02-13T09:18:32.586Z,9.40
2023-02-13T09:22:40.025Z,9.80
2023-02-13T09:26:48.654Z,9.50
2023-02-13T09:30:56.571Z,3.90
2023-02-13T09:35:04.757Z,3.30
2023-02-13T09:39:12.770Z,2.90
2023-02-13T09:43:28.782Z,2.50
2023-02-13T09:47:39.159Z,2.90
2023-02-13T09:51:49.915Z,2.50
2023-02-13T09:56:15.341Z,2.40
2023-02-13T10:00:27.349Z,2.00
2023-02-13T10:04:47.236Z,2.40
2023-02-13T10:09:03.406Z,2.20
2023-02-13T10:13:32.320Z,2.50
2023-02-13T10:17:42.076Z,2.90
2023-02-13T10:21:54.954Z,2.60
2023-02-13T10:26:04.469Z,2.70
2023-02-13T10:30:20.285Z,2.60
2023-02-13T10:34:29.936Z,2.80
2023-02-13T10:38:40.256Z,3.20
2023-02-13T10:42:51.513Z,2.80
2023-02-13T10:47:05.626Z,2.80
2023-02-13T10:51:20.171Z,3.20
2023-02-13T10:55:38.246Z,3.70
2023-02-13T11:00:00.154Z,3.40
2023-02-13T11:04:11.804Z,3.30
2023-02-13T11:08:24.727Z,2.80
2023-02-13T11:12:34.578Z,3.10
2023-02-13T11:16:57.888Z,3.90
2023-02-13T11:21:18.382Z,4.20
2023-02-13T11:25:30.510Z,3.30
2023-02-13T11:29:39.268Z,4.10
2023-02-13T11:33:47.952Z,4.20
2023-02-13T11:38:15.854Z,4.20
2023-02-13T11:42:31.778Z,4.00
2023-02-13T11:46:51.181Z,4.00
2023-02-13T11:51:01.349Z,3.90
2023-02-13T11:55:29.286Z,4.20
2023-02-13T11:59:44.456Z,4.40
2023-02-13T12:04:09.321Z,4.40
2023-02-13T12:08:17.412Z,4.60
2023-02-13T12:12:34.988Z,4.30
2023-02-13T12:16:45.511Z,3.50
2023-02-13T12:20:59.758Z,4.30
2023-02-13T12:25:29.542Z,4.30
2023-02-13T12:30:00.366Z,4.80
2023-02-13T12:34:32.339Z,4.80
2023-02-13T12:38:50.885Z,5.20
2023-02-13T12:43:12.800Z,5.00
2023-02-13T12:47:23.397Z,5.70
2023-02-13T12:51:43.097Z,5.90
2023-02-13T12:56:10.146Z,6.70
2023-02-13T13:00:25.672Z,5.70
2023-02-13T13:04:51.773Z,6.20
2023-02-13T13:09:30.298Z,6.20
2023-02-13T13:13:49.153Z,6.20
2023-02-13T13:18:09.553Z,6.00
2023-02-13T13:22:22.653Z,5.60
2023-02-13T13:26:37.305Z,6.60
2023-02-13T13:30:45.525Z,5.80
2023-02-13T13:34:53.509Z,5.90
2023-02-13T13:39:06.783Z,5.70
2023-02-13T13:43:24.097Z,6.40
2023-02-13T13:47:47.327Z,7.10
2023-02-13T13:51:54.917Z,6.60
2023-02-13T13:56:05.934Z,6.90
2023-02-13T14:00:28.106Z,5.80
2023-02-13T14:04:46.778Z,6.90
2023-02-13T14:09:07.620Z,7.00
2023-02-13T14:13:33.218Z,7.90
2023-02-13T14:17:59.366Z,6.80
2023-02-13T14:22:35.263Z,7.40
2023-02-13T14:26:44.048Z,7.60
2023-02-13T14:30:55.097Z,7.60
2023-02-13T14:35:07.831Z,7.10
2023-02-13T14:39:25.849Z,7.80
2023-02-13T14:43:40.329Z,8.80
2023-02-13T14:47:53.701Z,7.60
2023-02-13T14:52:04.008Z,7.90
2023-02-13T14:56:17.791Z,7.70
2023-02-13T15:00:29.378Z,7.90
2023-02-13T15:04:40.467Z,10.60
2023-02-13T15:08:55.048Z,10.50
2023-02-13T15:13:03.587Z,10.70
2023-02-13T15:17:16.457Z,9.10
2023-02-13T15:21:25.794Z,8.30
2023-02-13T15:25:38.306Z,8.60
2023-02-13T15:30:02.052Z,8.80
2023-02-13T15:34:24.655Z,9.40
2023-02-13T15:38:34.099Z,7.90
2023-02-13T15:42:42.819Z,8.60
2023-02-13T15:46:53.187Z,7.30
2023-02-13T15:51:03.346Z,8.20
2023-02-13T15:55:22.260Z,9.10
2023-02-13T15:59:33.518Z,8.00
2023-02-13T16:03:43.714Z,7.60
2023-02-13T16:07:57.578Z,7.40
2023-02-13T16:12:07.877Z,8.30
2023-02-13T16:16:17.030Z,8.60
2023-02-13T16:20:27.497Z,8.40
2023-02-13T16:24:35.626Z,9.60
2023-02-13T16:28:43.534Z,9.70
2023-02-13T16:32:51.089Z,8.60
2023-02-13T16:36:58.736Z,8.80
2023-02-13T16:41:08.687Z,10.40
2023-02-13T16:45:27.521Z,11.20
2023-02-13T16:49:37.988Z,11.70
2023-02-13T16:53:46.149Z,13.50
2023-02-13T16:57:53.690Z,11.90
2023-02-13T17:02:22.164Z,13.60
2023-02-13T17:06:31.366Z,11.80
2023-02-13T17:10:42.109Z,10.60
2023-02-13T17:14:51.434Z,13.80
2023-02-13T17:19:01.099Z,13.20
2023-02-13T17:23:10.587Z,11.90
2023-02-13T17:27:18.338Z,10.50
2023-02-13T17:31:26.328Z,8.50
2023-02-13T17:35:35.273Z,8.70
2023-02-13T17:39:43.063Z,7.90
2023-02-13T17:43:51.364Z,8.00
2023-02-13T17:48:01.715Z,6.90
2023-02-13T17:52:12.315Z,7.60
2023-02-13T17:56:20.172Z,6.50
2023-02-13T18:00:29.631Z,6.40
2023-02-13T18:04:37.328Z,5.30
2023-02-13T18:08:44.972Z,5.70
2023-02-13T18:12:57.201Z,5.70
2023-02-13T18:17:05.151Z,5.70
2023-02-13T18:21:13.853Z,5.70
2023-02-13T18:25:23.973Z,5.40
2023-02-13T18:29:32.518Z,5.60
2023-02-13T18:33:42.287Z,4.80
2023-02-13T18:37:50.618Z,5.20
2023-02-13T18:41:58.417Z,5.10
2023-02-13T18:46:07.780Z,5.40
2023-02-13T18:50:15.894Z,5.10
2023-02-13T18:54:26.070Z,5.10
2023-02-13T18:58:34.160Z,5.20
2023-02-13T19:02:42.456Z,6.10
2023-02-13T19:06:51.934Z,6.00
2023-02-13T19:11:03.385Z,5.20
2023-02-13T19:15:12.265Z,5.10
2023-02-13T19:19:20.831Z,4.80
2023-02-13T19:23:28.905Z,4.90
2023-02-13T19:27:40.217Z,4.50
2023-02-13T19:31:48.537Z,4.80
2023-02-13T19:36:06.746Z,4.90
2023-02-13T19:40:19.302Z,5.10
2023-02-13T19:44:29.151Z,4.90
2023-02-13T19:48:37.596Z,5.40
2023-02-13T19:52:45.428Z,5.40
2023-02-13T19:56:54.844Z,4.70
2023-02-13T20:01:18.186Z,4.80
2023-02-13T20:05:26.310Z,5.30
2023-02-13T20:09:35.540Z,5.20
2023-02-13T20:13:44.905Z,5.40
2023-02-13T20:17:52.652Z,4.90
2023-02-13T20:22:00.189Z,5.30
2023-02-13T20:26:11.138Z,5.90
2023-02-13T20:30:20.162Z,6.10
2023-02-13T20:34:31.433Z,7.30
2023-02-13T20:38:39.708Z,7.80
2023-02-13T20:42:47.348Z,8.00
2023-02-13T20:47:02.997Z,8.10
2023-02-13T20:51:13.129Z,8.40
2023-02-13T20:55:25.260Z,8.90
2023-02-13T20:59:33.582Z,7.40
2023-02-13T21:03:41.823Z,8.70
2023-02-13T21:07:52.044Z,8.40
2023-02-13T21:12:00.982Z,8.70
2023-02-13T21:16:10.470Z,8.40
2023-02-13T21:20:18.326Z,8.60
2023-02-13T21:24:25.732Z,8.40
2023-02-13T21:28:34.125Z,8.30
2023-02-13T21:32:42.406Z,9.00
2023-02-13T21:36:50.428Z,9.10
2023-02-13T21:41:05.409Z,9.80
2023-02-13T21:45:13.347Z,9.30
2023-02-13T21:49:22.003Z,9.00
2023-02-13T21:53:29.673Z,9.10
2023-02-13T21:57:37.675Z,9.90
2023-02-13T22:01:45.843Z,9.20
2023-02-13T22:05:53.685Z,9.40
2023-02-13T22:10:01.477Z,9.40
2023-02-13T22:14:13.111Z,9.90
2023-02-13T22:18:20.729Z,9.50
2023-02-13T22:22:29.251Z,9.90
2023-02-13T22:26:38.868Z,9.10
2023-02-13T22:30:47.354Z,10.30
2023-02-13T22:34:55.431Z,10.00
2023-02-13T22:39:04.128Z,9.20
2023-02-13T22:43:12.100Z,9.30
2023-02-13T22:47:21.863Z,9.20
2023-02-13T22:51:31.104Z,8.50
2023-02-13T22:55:39.494Z,10.20
2023-02-13T22:59:47.138Z,10.70
2023-02-13T23:03:55.614Z,10.70
2023-02-13T23:08:03.636Z,10.80
2023-02-13T23:12:29.916Z,9.20
2023-02-13T23:16:52.231Z,10.80
2023-02-13T23:21:07.550Z,10.50
2023-02-13T23:25:15.416Z,9.50
2023-02-13T23:29:23.037Z,10.80
2023-02-13T23:33:31.099Z,11.20
2023-02-13T23:37:38.728Z,10.20
2023-02-13T23:41:46.776Z,10.80
2023-02-13T23:45:55.002Z,10.10
2023-02-13T23:50:02.583Z,10.20
2023-02-13T23:54:10.977Z,10.80
2023-02-13T23:58:19.266Z,10.60
